D/T METAR WX W/DIR W/SPE G/SPE TEMP DEWP
9/12/19 13:20 EGLC 091320Z AUTO 30014G25KT 280V350 9999 NCD 10/M00 Q1014 WNW (300°) 16.1mph 28.8mph 10°C 0°C
9/12/19 12:20 EGLC 091220Z AUTO 30014G24KT 280V350 9999 NCD 10/00 Q1012 WNW (300°) 16.1mph 27.6mph 10°C 0°C
9/12/19 11:50 EGLC 091150Z AUTO 30017G30KT 280V350 9999 FEW044/// 10/00 Q1011 WNW (300°) 19.6mph 34.5mph 10°C 0°C
9/12/19 11:20 EGLC 091120Z AUTO 30017G30KT 280V350 9999 FEW040 10/01 Q1010 WNW (300°) 19.6mph 34.5mph 10°C 1°C
9/12/19 10:50 EGLC 091050Z AUTO 30018G29KT 9999 FEW040 09/02 Q1009 WNW (300°) 20.7mph 33.4mph 9°C 2°C
9/12/19 10:20 EGLC 091020Z AUTO 30018KT 9999 NCD 09/02 Q1008 WNW (300°) 20.7mph 9°C 2°C
9/12/19 09:50 EGLC 090950Z AUTO 30015G27KT 9999 FEW037 09/03 Q1007 WNW (300°) 17.3mph 31.1mph 9°C 3°C
9/12/19 09:20 EGLC 090920Z AUTO 30015G25KT 9999 NCD 09/03 Q1006 WNW (300°) 17.3mph 28.8mph 9°C 3°C
9/12/19 08:50 EGLC 090850Z AUTO 30018G29KT 9999 NCD 09/03 Q1004 WNW (300°) 20.7mph 33.4mph 9°C 3°C
9/12/19 08:20 EGLC 090820Z AUTO 31017KT 9999 SCT040 09/04 Q1003 NW (310°) 19.6mph 9°C 4°C
9/12/19 07:20 EGLC 090720Z AUTO 30014KT 9999 BKN024 09/05 Q1000 WNW (300°) 16.1mph 9°C 5°C
9/12/19 06:50 EGLC 090650Z AUTO 29015KT 9999 SCT022 BKN044 09/05 Q0999 WNW (290°) 17.3mph 9°C 5°C
9/12/19 05:50 EGLC 090550Z AUTO 30014G28KT 9999 SCT021 SCT026 BKN036 09/05 Q0996 WNW (300°) 16.1mph 32.2mph 9°C 5°C
9/12/19 05:20 EGLC 090520Z AUTO 28012KT 9999 -RA FEW017 BKN021 BKN027 08/06 Q0995 -RA W (280°) 13.8mph 8°C 6°C
9/12/19 04:50 EGLC 090450Z AUTO 26010KT 9999 -RA BKN019 OVC049 08/06 Q0994 -RA W (260°) 11.5mph 8°C 6°C
9/12/19 03:50 EGLC 090350Z AUTO 25010KT 9999 -RA FEW027 BKN032 BKN039 08/05 Q0992 -RA WSW (250°) 11.5mph 8°C 5°C
9/12/19 03:20 EGLC 090320Z AUTO 25014KT 9999 BKN039 09/04 Q0992 WSW (250°) 16.1mph 9°C 4°C
9/12/19 02:50 EGLC 090250Z AUTO 26014KT 9999 BKN037 08/04 Q0992 W (260°) 16.1mph 8°C 4°C
9/12/19 02:20 EGLC 090220Z AUTO 27014KT 9999 FEW026 08/04 Q0992 W (270°) 16.1mph 8°C 4°C
9/12/19 01:50 EGLC 090150Z AUTO 27016KT 250V310 9999 BKN020 08/05 Q0991 W (270°) 18.4mph 8°C 5°C
9/12/19 01:20 EGLC 090120Z AUTO 26015KT 9999 -RA BKN017 BKN023 OVC043 09/05 Q0991 -RA W (260°) 17.3mph 9°C 5°C
9/12/19 00:50 EGLC 090050Z AUTO 24011KT 9999 -RA BKN017/// OVC029/// //////TCU 08/06 Q0990 -RA WSW (240°) 12.7mph 8°C 6°C
9/12/19 00:20 EGLC 090020Z AUTO 23010KT 7000 -RA BKN026/// BKN039/// //////TCU 08/05 Q0991 -RA SW (230°) 11.5mph 8°C 5°C
8/12/19 23:50 EGLC 082350Z AUTO 22008KT 190V250 9999 SCT035 08/03 Q0991 SW (220°) 9.2mph 8°C 3°C
8/12/19 23:20 EGLC 082320Z AUTO 23009KT 9999 -RA SCT044 08/03 Q0992 -RA SW (230°) 10.4mph 8°C 3°C
8/12/19 22:20 EGLC 082220Z AUTO 24013KT 9999 NCD 08/03 Q0994 WSW (240°) 15.0mph 8°C 3°C
8/12/19 21:50 EGLC 082150Z AUTO 23018G29KT 9999 NCD 08/03 Q0994 SW (230°) 20.7mph 33.4mph 8°C 3°C
8/12/19 21:20 EGLC 082120Z AUTO 24015G25KT 9999 NCD 08/02 Q0995 WSW (240°) 17.3mph 28.8mph 8°C 2°C
8/12/19 20:50 EGLC 082050Z AUTO 24015G26KT 9999 NCD 08/02 Q0995 WSW (240°) 17.3mph 29.9mph 8°C 2°C
8/12/19 20:20 EGLC 082020Z AUTO 24015KT 9999 NCD 08/03 Q0996 WSW (240°) 17.3mph 8°C 3°C
8/12/19 19:20 EGLC 081920Z AUTO 24015KT 9999 NCD 08/03 Q0997 WSW (240°) 17.3mph 8°C 3°C
8/12/19 18:50 EGLC 081850Z AUTO 24015KT 9999 FEW029 SCT035 08/03 Q0997 WSW (240°) 17.3mph 8°C 3°C
8/12/19 18:20 EGLC 081820Z AUTO 24013KT 9999 BKN031 BKN042 08/03 Q0997 WSW (240°) 15.0mph 8°C 3°C
8/12/19 17:50 EGLC 081750Z AUTO 24013KT 9999 NCD 08/03 Q0997 WSW (240°) 15.0mph 8°C 3°C
8/12/19 17:20 EGLC 081720Z AUTO 24014KT 9999 SCT028 08/03 Q0998 WSW (240°) 16.1mph 8°C 3°C
8/12/19 16:50 EGLC 081650Z AUTO 25014KT 9999 FEW041 08/03 Q0998 WSW (250°) 16.1mph 8°C 3°C
8/12/19 16:20 EGLC 081620Z AUTO 24013KT 9999 NCD 08/04 Q0998 WSW (240°) 15.0mph 8°C 4°C
8/12/19 15:20 EGLC 081520Z AUTO 24012KT 9999 SCT044/// //////CB 09/04 Q0999 WSW (240°) 13.8mph 9°C 4°C
8/12/19 14:50 EGLC 081450Z AUTO 24018G28KT 9999 SCT038 BKN044 11/03 Q0998 WSW (240°) 20.7mph 32.2mph 11°C 3°C
8/12/19 14:20 EGLC 081420Z AUTO 25018G28KT 9999 BKN042 11/03 Q0999 WSW (250°) 20.7mph 32.2mph 11°C 3°C
8/12/19 13:50 EGLC 081350Z AUTO 25020G30KT 9999 -RA SCT039 BKN046 11/03 Q0999 -RA WSW (250°) 23.0mph 34.5mph 11°C 3°C
8/12/19 12:50 EGLC 081250Z AUTO 25015KT 9999 SCT034 BKN040 BKN049 11/04 Q1000 WSW (250°) 17.3mph 11°C 4°C
8/12/19 12:20 EGLC 081220Z AUTO 25021G31KT 9999 BKN034 11/04 Q1000 WSW (250°) 24.2mph 35.7mph 11°C 4°C
8/12/19 11:50 EGLC 081150Z AUTO 25020G31KT 9999 SCT033 11/04 Q1000 WSW (250°) 23.0mph 35.7mph 11°C 4°C
8/12/19 11:20 EGLC 081120Z AUTO 24017KT 210V280 9999 SCT031 SCT037 11/05 Q1001 WSW (240°) 19.6mph 11°C 5°C
8/12/19 10:50 EGLC 081050Z AUTO 24016KT 210V280 9999 BKN030 11/05 Q1001 WSW (240°) 18.4mph 11°C 5°C
8/12/19 10:20 EGLC 081020Z AUTO 25015KT 9999 BKN032 11/05 Q1001 WSW (250°) 17.3mph 11°C 5°C
8/12/19 09:20 EGLC 080920Z AUTO 25015KT 9999 SCT031 BKN037 11/06 Q1001 WSW (250°) 17.3mph 11°C 6°C